KMRY

Monterey Regional Airport

Monterey, California, USA
METAR KMRY 190854Z AUTO 24003KT 9SM OVC006 12/11 A2993 RMK AO2 SLP146 T01220106 58002
Observed Flight Rules
Sep-19 @ 08:54 UTC (49 minutes ago) Instrument Flight Rules
Wind Visibility Clouds
240° at 3 knots 9 miles
  • Overcast at 600' AGL
Temperatures Readings
Current 12°C / 54°F
Dewpoint 11°C / 52°F
Humidity 94%
Altimeter 29.93" Hg
Pressure 1014.6 hPa
Elevation 66
METAR KMRY 190854Z AUTO 24003KT 9SM OVC006 12/11 A2993 RMK AO2 SLP146 T01220106 58002
Observed Flight Rules
Sep-19 @ 08:54 UTC
(49 minutes ago)
IFR
Wind Visibility
240° at 3 knots 9 miles
Clouds
  • Overcast at 600' AGL
Temperature Dewpoint
12°C / 54°F 11°C / 52°F
Humidity Altimeter Pressure
94% 29.93" Hg 1014.6 hPa